sensor_id;sensor_type;location;lat;lon;timestamp;P1;durP1;ratioP1;P2;durP2;ratioP2
2123;SDS011;1068;52.460;13.528;2023-11-19T00:02:23;5.50;;;5.00;;
2123;SDS011;1068;52.460;13.528;2023-11-19T00:04:50;5.20;;;4.85;;
2123;SDS011;1068;52.460;13.528;2023-11-19T00:07:18;4.85;;;4.45;;
2123;SDS011;1068;52.460;13.528;2023-11-19T00:09:45;6.95;;;4.78;;
2123;SDS011;1068;52.460;13.528;2023-11-19T00:12:12;10.73;;;5.40;;
2123;SDS011;1068;52.460;13.528;2023-11-19T00:14:39;11.77;;;4.80;;
2123;SDS011;1068;52.460;13.528;2023-11-19T00:17:06;5.82;;;5.32;;
2123;SDS011;1068;52.460;13.528;2023-11-19T00:19:34;5.50;;;5.00;;
2123;SDS011;1068;52.460;13.528;2023-11-19T00:22:01;5.45;;;5.05;;
2123;SDS011;1068;52.460;13.528;2023-11-19T00:24:28;5.82;;;4.65;;
2123;SDS011;1068;52.460;13.528;2023-11-19T00:26:56;5.22;;;4.72;;
2123;SDS011;1068;52.460;13.528;2023-11-19T00:29:23;4.60;;;4.20;;
2123;SDS011;1068;52.460;13.528;2023-11-19T00:31:50;7.65;;;5.10;;
2123;SDS011;1068;52.460;13.528;2023-11-19T00:34:17;5.55;;;4.88;;
2123;SDS011;1068;52.460;13.528;2023-11-19T00:36:47;5.00;;;4.60;;
2123;SDS011;1068;52.460;13.528;2023-11-19T00:39:14;5.20;;;4.70;;
2123;SDS011;1068;52.460;13.528;2023-11-19T00:41:42;4.50;;;4.10;;
2123;SDS011;1068;52.460;13.528;2023-11-19T00:44:11;5.18;;;4.68;;
2123;SDS011;1068;52.460;13.528;2023-11-19T00:46:38;5.60;;;5.00;;
2123;SDS011;1068;52.460;13.528;2023-11-19T00:49:05;6.32;;;4.88;;
2123;SDS011;1068;52.460;13.528;2023-11-19T00:51:32;4.85;;;4.47;;
2123;SDS011;1068;52.460;13.528;2023-11-19T00:54:00;5.10;;;4.63;;
2123;SDS011;1068;52.460;13.528;2023-11-19T00:56:27;4.50;;;4.20;;
2123;SDS011;1068;52.460;13.528;2023-11-19T00:58:54;5.10;;;4.70;;
2123;SDS011;1068;52.460;13.528;2023-11-19T01:01:21;4.65;;;4.25;;
2123;SDS011;1068;52.460;13.528;2023-11-19T01:03:48;4.70;;;3.97;;
2123;SDS011;1068;52.460;13.528;2023-11-19T01:06:26;5.05;;;4.63;;
2123;SDS011;1068;52.460;13.528;2023-11-19T01:08:52;5.45;;;4.95;;
2123;SDS011;1068;52.460;13.528;2023-11-19T01:11:21;5.25;;;4.68;;
2123;SDS011;1068;52.460;13.528;2023-11-19T01:13:48;4.95;;;4.55;;
2123;SDS011;1068;52.460;13.528;2023-11-19T01:16:15;4.45;;;4.07;;
2123;SDS011;1068;52.460;13.528;2023-11-19T01:18:42;4.82;;;4.15;;
2123;SDS011;1068;52.460;13.528;2023-11-19T01:21:09;5.05;;;4.65;;
2123;SDS011;1068;52.460;13.528;2023-11-19T01:23:36;5.00;;;4.47;;
2123;SDS011;1068;52.460;13.528;2023-11-19T01:26:03;4.60;;;4.20;;
2123;SDS011;1068;52.460;13.528;2023-11-19T01:28:33;4.45;;;4.13;;
2123;SDS011;1068;52.460;13.528;2023-11-19T01:30:59;5.82;;;5.13;;
2123;SDS011;1068;52.460;13.528;2023-11-19T01:33:26;5.38;;;4.30;;
2123;SDS011;1068;52.460;13.528;2023-11-19T01:35:53;4.85;;;4.45;;
2123;SDS011;1068;52.460;13.528;2023-11-19T01:38:23;7.43;;;5.30;;
2123;SDS011;1068;52.460;13.528;2023-11-19T01:40:50;5.47;;;5.00;;
2123;SDS011;1068;52.460;13.528;2023-11-19T01:43:34;4.88;;;4.50;;
2123;SDS011;1068;52.460;13.528;2023-11-19T01:46:01;7.03;;;4.65;;
2123;SDS011;1068;52.460;13.528;2023-11-19T01:48:28;4.43;;;4.10;;
2123;SDS011;1068;52.460;13.528;2023-11-19T01:50:55;5.70;;;5.20;;
2123;SDS011;1068;52.460;13.528;2023-11-19T01:53:22;4.45;;;4.05;;
2123;SDS011;1068;52.460;13.528;2023-11-19T01:55:49;4.68;;;4.32;;
2123;SDS011;1068;52.460;13.528;2023-11-19T01:58:17;5.13;;;4.72;;
2123;SDS011;1068;52.460;13.528;2023-11-19T02:00:45;4.95;;;4.20;;
2123;SDS011;1068;52.460;13.528;2023-11-19T02:03:14;5.60;;;5.15;;
2123;SDS011;1068;52.460;13.528;2023-11-19T02:05:41;4.28;;;3.92;;
2123;SDS011;1068;52.460;13.528;2023-11-19T02:08:08;6.40;;;5.30;;
2123;SDS011;1068;52.460;13.528;2023-11-19T02:10:35;4.45;;;4.15;;
2123;SDS011;1068;52.460;13.528;2023-11-19T02:13:02;4.55;;;4.25;;
2123;SDS011;1068;52.460;13.528;2023-11-19T02:15:31;4.65;;;4.25;;
2123;SDS011;1068;52.460;13.528;2023-11-19T02:18:15;5.63;;;5.03;;
2123;SDS011;1068;52.460;13.528;2023-11-19T02:20:43;6.80;;;4.97;;
2123;SDS011;1068;52.460;13.528;2023-11-19T02:23:11;6.18;;;4.55;;
2123;SDS011;1068;52.460;13.528;2023-11-19T02:25:38;5.18;;;4.68;;
2123;SDS011;1068;52.460;13.528;2023-11-19T02:28:06;5.15;;;4.60;;
2123;SDS011;1068;52.460;13.528;2023-11-19T02:30:36;6.75;;;5.32;;
2123;SDS011;1068;52.460;13.528;2023-11-19T02:33:03;5.82;;;5.30;;
2123;SDS011;1068;52.460;13.528;2023-11-19T02:35:31;5.82;;;4.93;;
2123;SDS011;1068;52.460;13.528;2023-11-19T02:37:58;6.15;;;5.55;;
2123;SDS011;1068;52.460;13.528;2023-11-19T02:40:26;4.85;;;4.45;;
2123;SDS011;1068;52.460;13.528;2023-11-19T02:42:53;5.25;;;4.75;;
2123;SDS011;1068;52.460;13.528;2023-11-19T02:45:22;6.28;;;5.25;;
2123;SDS011;1068;52.460;13.528;2023-11-19T02:47:50;6.00;;;4.57;;
2123;SDS011;1068;52.460;13.528;2023-11-19T02:50:17;4.85;;;4.53;;
2123;SDS011;1068;52.460;13.528;2023-11-19T02:52:50;4.90;;;4.45;;
2123;SDS011;1068;52.460;13.528;2023-11-19T02:55:17;5.00;;;4.60;;
2123;SDS011;1068;52.460;13.528;2023-11-19T02:57:44;6.22;;;5.00;;
2123;SDS011;1068;52.460;13.528;2023-11-19T03:00:13;5.43;;;4.93;;
2123;SDS011;1068;52.460;13.528;2023-11-19T03:02:42;5.60;;;5.00;;
2123;SDS011;1068;52.460;13.528;2023-11-19T03:05:10;4.63;;;4.22;;
2123;SDS011;1068;52.460;13.528;2023-11-19T03:07:39;4.30;;;3.90;;
2123;SDS011;1068;52.460;13.528;2023-11-19T03:10:07;5.45;;;4.95;;
2123;SDS011;1068;52.460;13.528;2023-11-19T03:12:37;4.10;;;3.80;;
2123;SDS011;1068;52.460;13.528;2023-11-19T03:15:04;4.20;;;3.80;;
2123;SDS011;1068;52.460;13.528;2023-11-19T03:17:32;4.65;;;4.25;;
2123;SDS011;1068;52.460;13.528;2023-11-19T03:20:00;3.70;;;3.40;;
2123;SDS011;1068;52.460;13.528;2023-11-19T03:22:27;4.88;;;4.45;;
2123;SDS011;1068;52.460;13.528;2023-11-19T03:24:54;6.53;;;3.65;;
2123;SDS011;1068;52.460;13.528;2023-11-19T03:27:22;5.28;;;4.78;;
2123;SDS011;1068;52.460;13.528;2023-11-19T03:29:49;4.18;;;3.88;;
2123;SDS011;1068;52.460;13.528;2023-11-19T03:32:16;5.50;;;4.40;;
2123;SDS011;1068;52.460;13.528;2023-11-19T03:34:43;5.47;;;4.97;;
2123;SDS011;1068;52.460;13.528;2023-11-19T03:37:11;4.50;;;4.10;;
2123;SDS011;1068;52.460;13.528;2023-11-19T03:39:41;5.05;;;4.05;;
2123;SDS011;1068;52.460;13.528;2023-11-19T03:42:08;4.30;;;3.90;;
2123;SDS011;1068;52.460;13.528;2023-11-19T03:44:36;4.40;;;4.10;;
2123;SDS011;1068;52.460;13.528;2023-11-19T03:47:03;3.92;;;3.63;;
2123;SDS011;1068;52.460;13.528;2023-11-19T03:49:31;4.32;;;3.95;;
2123;SDS011;1068;52.460;13.528;2023-11-19T03:51:58;4.38;;;4.07;;
2123;SDS011;1068;52.460;13.528;2023-11-19T03:54:26;3.88;;;3.58;;
2123;SDS011;1068;52.460;13.528;2023-11-19T03:56:53;6.13;;;4.18;;
2123;SDS011;1068;52.460;13.528;2023-11-19T03:59:20;4.65;;;4.20;;
2123;SDS011;1068;52.460;13.528;2023-11-19T04:01:47;4.38;;;3.88;;
2123;SDS011;1068;52.460;13.528;2023-11-19T04:04:14;4.38;;;3.97;;
2123;SDS011;1068;52.460;13.528;2023-11-19T04:06:41;5.95;;;5.38;;
2123;SDS011;1068;52.460;13.528;2023-11-19T04:09:08;5.25;;;4.53;;
2123;SDS011;1068;52.460;13.528;2023-11-19T04:11:37;4.88;;;4.47;;
2123;SDS011;1068;52.460;13.528;2023-11-19T04:14:04;4.65;;;4.35;;
2123;SDS011;1068;52.460;13.528;2023-11-19T04:16:31;4.88;;;4.50;;
2123;SDS011;1068;52.460;13.528;2023-11-19T04:18:58;6.40;;;4.85;;
2123;SDS011;1068;52.460;13.528;2023-11-19T04:21:26;6.60;;;5.30;;
2123;SDS011;1068;52.460;13.528;2023-11-19T04:23:53;5.57;;;5.03;;
2123;SDS011;1068;52.460;13.528;2023-11-19T04:26:20;6.03;;;4.18;;
2123;SDS011;1068;52.460;13.528;2023-11-19T04:28:48;6.07;;;5.50;;
2123;SDS011;1068;52.460;13.528;2023-11-19T04:31:15;6.60;;;5.93;;
2123;SDS011;1068;52.460;13.528;2023-11-19T04:33:42;5.72;;;4.78;;
2123;SDS011;1068;52.460;13.528;2023-11-19T04:36:09;6.70;;;5.80;;
2123;SDS011;1068;52.460;13.528;2023-11-19T04:38:36;11.73;;;5.90;;
2123;SDS011;1068;52.460;13.528;2023-11-19T04:41:05;5.05;;;4.65;;
2123;SDS011;1068;52.460;13.528;2023-11-19T04:43:32;6.63;;;5.43;;
2123;SDS011;1068;52.460;13.528;2023-11-19T04:46:00;6.43;;;5.82;;
2123;SDS011;1068;52.460;13.528;2023-11-19T04:48:29;6.15;;;5.45;;
2123;SDS011;1068;52.460;13.528;2023-11-19T04:50:56;7.03;;;6.15;;
2123;SDS011;1068;52.460;13.528;2023-11-19T04:53:23;5.88;;;5.28;;
2123;SDS011;1068;52.460;13.528;2023-11-19T04:55:50;6.85;;;5.35;;
2123;SDS011;1068;52.460;13.528;2023-11-19T04:58:17;5.60;;;5.05;;
2123;SDS011;1068;52.460;13.528;2023-11-19T05:00:44;6.13;;;5.53;;
2123;SDS011;1068;52.460;13.528;2023-11-19T05:03:13;6.07;;;5.47;;
2123;SDS011;1068;52.460;13.528;2023-11-19T05:05:40;8.77;;;5.87;;
2123;SDS011;1068;52.460;13.528;2023-11-19T05:08:07;6.45;;;5.85;;
2123;SDS011;1068;52.460;13.528;2023-11-19T05:10:34;5.97;;;5.40;;
2123;SDS011;1068;52.460;13.528;2023-11-19T05:13:01;7.25;;;5.55;;
2123;SDS011;1068;52.460;13.528;2023-11-19T05:15:28;6.15;;;5.65;;
2123;SDS011;1068;52.460;13.528;2023-11-19T05:17:55;7.93;;;5.45;;
2123;SDS011;1068;52.460;13.528;2023-11-19T05:20:24;7.25;;;6.53;;
2123;SDS011;1068;52.460;13.528;2023-11-19T05:22:50;6.05;;;5.50;;
2123;SDS011;1068;52.460;13.528;2023-11-19T05:25:18;6.30;;;5.70;;
2123;SDS011;1068;52.460;13.528;2023-11-19T05:27:45;6.10;;;5.50;;
2123;SDS011;1068;52.460;13.528;2023-11-19T05:30:13;5.97;;;5.22;;
2123;SDS011;1068;52.460;13.528;2023-11-19T05:32:40;7.35;;;5.95;;
2123;SDS011;1068;52.460;13.528;2023-11-19T05:35:08;6.32;;;5.72;;
2123;SDS011;1068;52.460;13.528;2023-11-19T05:37:36;7.28;;;5.82;;
2123;SDS011;1068;52.460;13.528;2023-11-19T05:40:04;5.90;;;5.40;;
2123;SDS011;1068;52.460;13.528;2023-11-19T05:42:37;5.20;;;4.53;;
2123;SDS011;1068;52.460;13.528;2023-11-19T05:45:04;5.93;;;5.40;;
2123;SDS011;1068;52.460;13.528;2023-11-19T05:47:32;6.53;;;5.50;;
2123;SDS011;1068;52.460;13.528;2023-11-19T05:50:00;6.32;;;5.82;;
2123;SDS011;1068;52.460;13.528;2023-11-19T05:52:28;6.15;;;5.65;;
2123;SDS011;1068;52.460;13.528;2023-11-19T05:54:59;5.40;;;5.00;;
2123;SDS011;1068;52.460;13.528;2023-11-19T05:57:28;5.50;;;5.00;;
2123;SDS011;1068;52.460;13.528;2023-11-19T05:59:56;5.13;;;4.82;;
2123;SDS011;1068;52.460;13.528;2023-11-19T06:02:24;5.90;;;5.40;;
2123;SDS011;1068;52.460;13.528;2023-11-19T06:04:52;5.57;;;4.65;;
2123;SDS011;1068;52.460;13.528;2023-11-19T06:07:19;4.80;;;4.47;;
2123;SDS011;1068;52.460;13.528;2023-11-19T06:09:45;4.82;;;4.38;;
2123;SDS011;1068;52.460;13.528;2023-11-19T06:12:14;5.75;;;4.40;;
2123;SDS011;1068;52.460;13.528;2023-11-19T06:14:41;5.05;;;4.60;;
2123;SDS011;1068;52.460;13.528;2023-11-19T06:17:08;5.18;;;4.40;;
2123;SDS011;1068;52.460;13.528;2023-11-19T06:19:36;6.80;;;5.45;;
2123;SDS011;1068;52.460;13.528;2023-11-19T06:22:03;5.05;;;4.55;;
2123;SDS011;1068;52.460;13.528;2023-11-19T06:24:30;4.32;;;3.97;;
2123;SDS011;1068;52.460;13.528;2023-11-19T06:26:57;5.28;;;4.35;;
2123;SDS011;1068;52.460;13.528;2023-11-19T06:29:25;4.88;;;4.47;;
2123;SDS011;1068;52.460;13.528;2023-11-19T06:31:52;6.50;;;4.63;;
2123;SDS011;1068;52.460;13.528;2023-11-19T06:34:19;5.00;;;4.55;;
2123;SDS011;1068;52.460;13.528;2023-11-19T06:36:46;4.13;;;3.83;;
2123;SDS011;1068;52.460;13.528;2023-11-19T06:39:13;4.78;;;4.38;;
2123;SDS011;1068;52.460;13.528;2023-11-19T06:41:44;4.60;;;4.30;;
2123;SDS011;1068;52.460;13.528;2023-11-19T06:44:11;5.27;;;4.50;;
2123;SDS011;1068;52.460;13.528;2023-11-19T06:46:39;5.40;;;4.90;;
2123;SDS011;1068;52.460;13.528;2023-11-19T06:49:06;4.18;;;3.83;;
2123;SDS011;1068;52.460;13.528;2023-11-19T06:51:33;7.65;;;4.63;;
2123;SDS011;1068;52.460;13.528;2023-11-19T06:54:00;4.50;;;4.20;;
2123;SDS011;1068;52.460;13.528;2023-11-19T06:56:27;4.03;;;3.73;;
2123;SDS011;1068;52.460;13.528;2023-11-19T06:58:54;3.85;;;3.55;;
2123;SDS011;1068;52.460;13.528;2023-11-19T07:01:21;5.30;;;4.60;;
2123;SDS011;1068;52.460;13.528;2023-11-19T07:03:49;4.72;;;4.32;;
2123;SDS011;1068;52.460;13.528;2023-11-19T07:06:17;4.07;;;3.75;;
2123;SDS011;1068;52.460;13.528;2023-11-19T07:08:44;3.75;;;3.45;;
2123;SDS011;1068;52.460;13.528;2023-11-19T07:11:11;4.07;;;3.67;;
2123;SDS011;1068;52.460;13.528;2023-11-19T07:13:39;3.90;;;3.60;;
2123;SDS011;1068;52.460;13.528;2023-11-19T07:16:06;4.03;;;3.63;;
2123;SDS011;1068;52.460;13.528;2023-11-19T07:18:35;5.20;;;3.70;;
2123;SDS011;1068;52.460;13.528;2023-11-19T07:21:05;4.78;;;4.32;;
2123;SDS011;1068;52.460;13.528;2023-11-19T07:23:35;5.57;;;3.60;;
2123;SDS011;1068;52.460;13.528;2023-11-19T07:26:04;3.97;;;3.70;;
2123;SDS011;1068;52.460;13.528;2023-11-19T07:28:31;3.55;;;3.25;;
2123;SDS011;1068;52.460;13.528;2023-11-19T07:30:58;3.43;;;3.23;;
2123;SDS011;1068;52.460;13.528;2023-11-19T07:33:25;3.73;;;3.47;;
2123;SDS011;1068;52.460;13.528;2023-11-19T07:35:52;3.63;;;3.40;;
2123;SDS011;1068;52.460;13.528;2023-11-19T07:38:20;3.17;;;2.95;;
2123;SDS011;1068;52.460;13.528;2023-11-19T07:40:47;2.58;;;2.38;;
2123;SDS011;1068;52.460;13.528;2023-11-19T07:43:14;3.20;;;2.90;;
2123;SDS011;1068;52.460;13.528;2023-11-19T07:45:41;3.03;;;2.83;;
2123;SDS011;1068;52.460;13.528;2023-11-19T07:48:08;3.25;;;3.05;;
2123;SDS011;1068;52.460;13.528;2023-11-19T07:50:35;2.50;;;2.40;;
2123;SDS011;1068;52.460;13.528;2023-11-19T07:53:02;2.40;;;2.28;;
2123;SDS011;1068;52.460;13.528;2023-11-19T07:55:31;3.10;;;2.90;;
2123;SDS011;1068;52.460;13.528;2023-11-19T07:57:58;2.60;;;2.40;;
2123;SDS011;1068;52.460;13.528;2023-11-19T08:00:25;2.80;;;2.60;;
2123;SDS011;1068;52.460;13.528;2023-11-19T08:02:51;2.97;;;2.78;;
2123;SDS011;1068;52.460;13.528;2023-11-19T08:05:18;3.20;;;3.00;;
2123;SDS011;1068;52.460;13.528;2023-11-19T08:07:45;3.10;;;2.90;;
2123;SDS011;1068;52.460;13.528;2023-11-19T08:10:12;3.35;;;3.15;;
2123;SDS011;1068;52.460;13.528;2023-11-19T08:12:41;2.50;;;2.30;;
2123;SDS011;1068;52.460;13.528;2023-11-19T08:15:08;2.85;;;2.65;;
2123;SDS011;1068;52.460;13.528;2023-11-19T08:17:35;1.97;;;1.87;;
2123;SDS011;1068;52.460;13.528;2023-11-19T08:20:02;3.50;;;3.20;;
2123;SDS011;1068;52.460;13.528;2023-11-19T08:22:29;3.40;;;3.10;;
2123;SDS011;1068;52.460;13.528;2023-11-19T08:24:56;2.80;;;2.60;;
2123;SDS011;1068;52.460;13.528;2023-11-19T08:27:23;3.23;;;3.03;;
2123;SDS011;1068;52.460;13.528;2023-11-19T08:29:53;3.17;;;2.97;;
2123;SDS011;1068;52.460;13.528;2023-11-19T08:32:21;2.67;;;2.50;;
2123;SDS011;1068;52.460;13.528;2023-11-19T08:34:48;3.60;;;3.30;;
2123;SDS011;1068;52.460;13.528;2023-11-19T08:37:15;3.00;;;2.70;;
2123;SDS011;1068;52.460;13.528;2023-11-19T08:39:43;3.23;;;3.03;;
2123;SDS011;1068;52.460;13.528;2023-11-19T08:42:09;3.40;;;3.20;;
2123;SDS011;1068;52.460;13.528;2023-11-19T08:44:36;3.65;;;3.35;;
2123;SDS011;1068;52.460;13.528;2023-11-19T08:47:05;3.73;;;3.43;;
2123;SDS011;1068;52.460;13.528;2023-11-19T08:49:31;4.13;;;3.60;;
2123;SDS011;1068;52.460;13.528;2023-11-19T08:51:58;5.03;;;4.63;;
2123;SDS011;1068;52.460;13.528;2023-11-19T08:54:25;4.70;;;4.30;;
2123;SDS011;1068;52.460;13.528;2023-11-19T08:56:52;4.37;;;3.97;;
2123;SDS011;1068;52.460;13.528;2023-11-19T08:59:19;4.33;;;3.43;;
2123;SDS011;1068;52.460;13.528;2023-11-19T09:01:46;3.80;;;3.50;;
2123;SDS011;1068;52.460;13.528;2023-11-19T09:04:15;3.90;;;3.60;;
2123;SDS011;1068;52.460;13.528;2023-11-19T09:06:42;3.50;;;3.27;;
2123;SDS011;1068;52.460;13.528;2023-11-19T09:09:09;3.80;;;3.50;;
2123;SDS011;1068;52.460;13.528;2023-11-19T09:11:35;4.60;;;4.07;;
2123;SDS011;1068;52.460;13.528;2023-11-19T09:14:03;4.00;;;3.70;;
2123;SDS011;1068;52.460;13.528;2023-11-19T09:16:30;5.23;;;4.53;;
2123;SDS011;1068;52.460;13.528;2023-11-19T09:18:57;4.20;;;3.90;;
2123;SDS011;1068;52.460;13.528;2023-11-19T09:21:25;4.00;;;3.70;;
2123;SDS011;1068;52.460;13.528;2023-11-19T09:23:54;4.10;;;3.80;;
2123;SDS011;1068;52.460;13.528;2023-11-19T09:26:21;4.30;;;4.00;;
2123;SDS011;1068;52.460;13.528;2023-11-19T09:28:48;3.67;;;3.47;;
2123;SDS011;1068;52.460;13.528;2023-11-19T09:31:15;4.30;;;4.00;;
2123;SDS011;1068;52.460;13.528;2023-11-19T09:33:42;4.20;;;3.90;;
2123;SDS011;1068;52.460;13.528;2023-11-19T09:36:10;3.40;;;3.20;;
2123;SDS011;1068;52.460;13.528;2023-11-19T09:38:40;4.53;;;4.17;;
2123;SDS011;1068;52.460;13.528;2023-11-19T09:41:06;3.43;;;3.20;;
2123;SDS011;1068;52.460;13.528;2023-11-19T09:43:34;4.77;;;3.27;;
2123;SDS011;1068;52.460;13.528;2023-11-19T09:46:03;3.90;;;3.60;;
2123;SDS011;1068;52.460;13.528;2023-11-19T09:48:32;4.20;;;3.80;;
2123;SDS011;1068;52.460;13.528;2023-11-19T09:50:59;4.63;;;4.23;;
2123;SDS011;1068;52.460;13.528;2023-11-19T09:53:27;3.63;;;3.43;;
2123;SDS011;1068;52.460;13.528;2023-11-19T09:55:55;3.07;;;2.87;;
2123;SDS011;1068;52.460;13.528;2023-11-19T09:58:22;3.60;;;3.30;;
2123;SDS011;1068;52.460;13.528;2023-11-19T10:00:49;3.43;;;3.13;;
2123;SDS011;1068;52.460;13.528;2023-11-19T10:03:18;3.50;;;2.70;;
2123;SDS011;1068;52.460;13.528;2023-11-19T10:05:45;2.63;;;2.43;;
2123;SDS011;1068;52.460;13.528;2023-11-19T10:08:11;3.50;;;3.17;;
2123;SDS011;1068;52.460;13.528;2023-11-19T10:10:38;3.17;;;2.97;;
2123;SDS011;1068;52.460;13.528;2023-11-19T10:13:07;2.77;;;2.50;;
2123;SDS011;1068;52.460;13.528;2023-11-19T10:15:35;2.40;;;2.20;;
2123;SDS011;1068;52.460;13.528;2023-11-19T10:18:02;3.63;;;1.90;;
2123;SDS011;1068;52.460;13.528;2023-11-19T10:20:34;2.20;;;2.00;;
2123;SDS011;1068;52.460;13.528;2023-11-19T10:23:01;2.00;;;1.90;;
2123;SDS011;1068;52.460;13.528;2023-11-19T10:25:28;2.40;;;1.97;;
2123;SDS011;1068;52.460;13.528;2023-11-19T10:27:56;3.07;;;2.77;;
2123;SDS011;1068;52.460;13.528;2023-11-19T10:30:24;3.10;;;1.93;;
2123;SDS011;1068;52.460;13.528;2023-11-19T10:33:02;1.90;;;1.77;;
2123;SDS011;1068;52.460;13.528;2023-11-19T10:35:30;4.47;;;2.20;;
2123;SDS011;1068;52.460;13.528;2023-11-19T10:37:58;2.60;;;2.40;;
2123;SDS011;1068;52.460;13.528;2023-11-19T10:40:29;4.20;;;2.50;;
2123;SDS011;1068;52.460;13.528;2023-11-19T10:43:04;5.90;;;2.50;;
2123;SDS011;1068;52.460;13.528;2023-11-19T10:45:33;3.83;;;3.00;;
2123;SDS011;1068;52.460;13.528;2023-11-19T10:48:01;2.87;;;2.53;;
2123;SDS011;1068;52.460;13.528;2023-11-19T10:50:29;2.43;;;2.07;;
2123;SDS011;1068;52.460;13.528;2023-11-19T10:52:56;2.70;;;2.50;;
2123;SDS011;1068;52.460;13.528;2023-11-19T10:55:26;5.33;;;2.80;;
2123;SDS011;1068;52.460;13.528;2023-11-19T10:57:54;5.53;;;2.37;;
2123;SDS011;1068;52.460;13.528;2023-11-19T11:00:25;2.40;;;2.03;;
2123;SDS011;1068;52.460;13.528;2023-11-19T11:02:54;2.97;;;2.00;;
2123;SDS011;1068;52.460;13.528;2023-11-19T11:05:21;4.70;;;2.17;;
2123;SDS011;1068;52.460;13.528;2023-11-19T11:07:49;3.60;;;2.27;;
2123;SDS011;1068;52.460;13.528;2023-11-19T11:10:18;3.10;;;2.20;;
2123;SDS011;1068;52.460;13.528;2023-11-19T11:12:47;7.80;;;2.20;;
2123;SDS011;1068;52.460;13.528;2023-11-19T11:15:15;5.07;;;2.20;;
2123;SDS011;1068;52.460;13.528;2023-11-19T11:17:43;3.70;;;2.40;;
2123;SDS011;1068;52.460;13.528;2023-11-19T11:20:12;5.03;;;2.40;;
2123;SDS011;1068;52.460;13.528;2023-11-19T11:22:41;7.37;;;2.73;;
2123;SDS011;1068;52.460;13.528;2023-11-19T11:25:18;2.80;;;2.43;;
2123;SDS011;1068;52.460;13.528;2023-11-19T11:27:48;7.20;;;2.87;;
2123;SDS011;1068;52.460;13.528;2023-11-19T11:30:20;3.50;;;1.83;;
2123;SDS011;1068;52.460;13.528;2023-11-19T11:32:54;8.40;;;2.83;;
2123;SDS011;1068;52.460;13.528;2023-11-19T11:35:27;3.40;;;2.33;;
2123;SDS011;1068;52.460;13.528;2023-11-19T11:38:00;7.07;;;2.93;;
2123;SDS011;1068;52.460;13.528;2023-11-19T11:40:27;5.00;;;2.70;;
2123;SDS011;1068;52.460;13.528;2023-11-19T11:42:54;5.17;;;2.57;;
2123;SDS011;1068;52.460;13.528;2023-11-19T11:45:34;5.90;;;2.40;;
2123;SDS011;1068;52.460;13.528;2023-11-19T11:48:08;6.83;;;3.73;;
2123;SDS011;1068;52.460;13.528;2023-11-19T11:50:46;6.73;;;2.60;;
2123;SDS011;1068;52.460;13.528;2023-11-19T11:53:16;9.37;;;3.30;;
2123;SDS011;1068;52.460;13.528;2023-11-19T11:55:56;7.60;;;2.83;;
2123;SDS011;1068;52.460;13.528;2023-11-19T12:01:10;9.17;;;3.10;;
2123;SDS011;1068;52.460;13.528;2023-11-19T12:03:45;11.57;;;3.40;;
2123;SDS011;1068;52.460;13.528;2023-11-19T12:06:13;7.40;;;2.97;;
2123;SDS011;1068;52.460;13.528;2023-11-19T12:08:40;10.50;;;3.47;;
2123;SDS011;1068;52.460;13.528;2023-11-19T12:11:07;6.10;;;2.93;;
2123;SDS011;1068;52.460;13.528;2023-11-19T12:13:43;8.43;;;3.10;;
2123;SDS011;1068;52.460;13.528;2023-11-19T12:16:13;12.73;;;4.40;;
2123;SDS011;1068;52.460;13.528;2023-11-19T12:18:40;13.73;;;3.30;;
2123;SDS011;1068;52.460;13.528;2023-11-19T12:21:07;11.57;;;3.40;;
2123;SDS011;1068;52.460;13.528;2023-11-19T12:23:36;8.10;;;2.97;;
2123;SDS011;1068;52.460;13.528;2023-11-19T12:26:20;8.97;;;3.03;;
2123;SDS011;1068;52.460;13.528;2023-11-19T12:28:56;7.27;;;2.93;;
2123;SDS011;1068;52.460;13.528;2023-11-19T12:31:23;8.83;;;3.43;;
2123;SDS011;1068;52.460;13.528;2023-11-19T12:33:50;6.13;;;3.10;;
2123;SDS011;1068;52.460;13.528;2023-11-19T12:36:18;8.60;;;3.00;;
2123;SDS011;1068;52.460;13.528;2023-11-19T12:38:46;9.97;;;4.67;;
2123;SDS011;1068;52.460;13.528;2023-11-19T12:41:13;8.17;;;3.57;;
2123;SDS011;1068;52.460;13.528;2023-11-19T12:43:42;8.97;;;2.90;;
2123;SDS011;1068;52.460;13.528;2023-11-19T12:46:19;6.53;;;3.13;;
2123;SDS011;1068;52.460;13.528;2023-11-19T12:48:46;6.10;;;3.50;;
2123;SDS011;1068;52.460;13.528;2023-11-19T12:51:13;10.83;;;3.50;;
2123;SDS011;1068;52.460;13.528;2023-11-19T12:53:51;10.23;;;3.30;;
2123;SDS011;1068;52.460;13.528;2023-11-19T12:56:19;11.00;;;4.43;;
2123;SDS011;1068;52.460;13.528;2023-11-19T12:58:46;7.10;;;3.37;;
2123;SDS011;1068;52.460;13.528;2023-11-19T13:01:15;6.97;;;3.87;;
2123;SDS011;1068;52.460;13.528;2023-11-19T13:03:42;9.17;;;4.20;;
2123;SDS011;1068;52.460;13.528;2023-11-19T13:06:10;10.97;;;4.53;;
2123;SDS011;1068;52.460;13.528;2023-11-19T13:08:38;12.13;;;4.53;;
2123;SDS011;1068;52.460;13.528;2023-11-19T13:11:06;13.83;;;5.90;;
2123;SDS011;1068;52.460;13.528;2023-11-19T13:16:15;9.93;;;4.37;;
2123;SDS011;1068;52.460;13.528;2023-11-19T13:18:42;11.63;;;5.13;;
2123;SDS011;1068;52.460;13.528;2023-11-19T13:21:09;18.43;;;3.87;;
2123;SDS011;1068;52.460;13.528;2023-11-19T13:23:36;11.33;;;4.37;;
2123;SDS011;1068;52.460;13.528;2023-11-19T13:26:03;18.13;;;5.47;;
2123;SDS011;1068;52.460;13.528;2023-11-19T13:28:32;9.90;;;3.93;;
2123;SDS011;1068;52.460;13.528;2023-11-19T13:30:58;11.23;;;4.50;;
2123;SDS011;1068;52.460;13.528;2023-11-19T13:33:25;13.60;;;4.67;;
2123;SDS011;1068;52.460;13.528;2023-11-19T13:35:52;13.30;;;3.97;;
2123;SDS011;1068;52.460;13.528;2023-11-19T13:38:19;13.20;;;5.17;;
2123;SDS011;1068;52.460;13.528;2023-11-19T13:40:46;10.63;;;3.73;;
2123;SDS011;1068;52.460;13.528;2023-11-19T13:43:13;13.40;;;3.80;;
2123;SDS011;1068;52.460;13.528;2023-11-19T13:45:41;14.47;;;4.30;;
2123;SDS011;1068;52.460;13.528;2023-11-19T13:48:08;11.33;;;4.60;;
2123;SDS011;1068;52.460;13.528;2023-11-19T13:50:35;14.17;;;4.23;;
2123;SDS011;1068;52.460;13.528;2023-11-19T13:53:01;15.40;;;5.43;;
2123;SDS011;1068;52.460;13.528;2023-11-19T13:55:29;11.90;;;4.20;;
2123;SDS011;1068;52.460;13.528;2023-11-19T13:57:57;10.20;;;4.10;;
2123;SDS011;1068;52.460;13.528;2023-11-19T14:00:23;12.07;;;4.60;;
2123;SDS011;1068;52.460;13.528;2023-11-19T14:02:52;14.50;;;4.83;;
2123;SDS011;1068;52.460;13.528;2023-11-19T14:05:19;12.70;;;4.20;;
2123;SDS011;1068;52.460;13.528;2023-11-19T14:07:46;10.97;;;4.10;;
2123;SDS011;1068;52.460;13.528;2023-11-19T14:10:13;12.97;;;4.10;;
2123;SDS011;1068;52.460;13.528;2023-11-19T14:12:40;16.93;;;4.97;;
2123;SDS011;1068;52.460;13.528;2023-11-19T14:15:08;13.00;;;4.80;;
2123;SDS011;1068;52.460;13.528;2023-11-19T14:17:37;20.77;;;6.13;;
2123;SDS011;1068;52.460;13.528;2023-11-19T14:20:06;20.83;;;4.80;;
2123;SDS011;1068;52.460;13.528;2023-11-19T14:22:37;10.30;;;4.50;;
2123;SDS011;1068;52.460;13.528;2023-11-19T14:25:04;16.37;;;4.50;;
2123;SDS011;1068;52.460;13.528;2023-11-19T14:27:34;17.97;;;4.33;;
2123;SDS011;1068;52.460;13.528;2023-11-19T14:30:02;15.70;;;4.03;;
2123;SDS011;1068;52.460;13.528;2023-11-19T14:32:29;14.67;;;6.17;;
2123;SDS011;1068;52.460;13.528;2023-11-19T14:34:56;11.53;;;3.47;;
2123;SDS011;1068;52.460;13.528;2023-11-19T14:37:24;14.50;;;4.13;;
2123;SDS011;1068;52.460;13.528;2023-11-19T14:39:51;13.80;;;3.90;;
2123;SDS011;1068;52.460;13.528;2023-11-19T14:42:18;15.20;;;4.50;;
2123;SDS011;1068;52.460;13.528;2023-11-19T14:44:45;14.07;;;4.57;;
2123;SDS011;1068;52.460;13.528;2023-11-19T14:47:12;16.57;;;4.80;;
2123;SDS011;1068;52.460;13.528;2023-11-19T14:49:38;13.47;;;3.97;;
2123;SDS011;1068;52.460;13.528;2023-11-19T14:52:05;19.93;;;5.43;;
2123;SDS011;1068;52.460;13.528;2023-11-19T14:54:34;17.77;;;4.63;;
2123;SDS011;1068;52.460;13.528;2023-11-19T14:57:01;15.00;;;5.20;;
2123;SDS011;1068;52.460;13.528;2023-11-19T14:59:28;11.20;;;3.60;;
2123;SDS011;1068;52.460;13.528;2023-11-19T15:01:55;13.10;;;4.60;;
2123;SDS011;1068;52.460;13.528;2023-11-19T15:04:22;21.30;;;4.73;;
2123;SDS011;1068;52.460;13.528;2023-11-19T15:06:49;13.50;;;4.10;;
2123;SDS011;1068;52.460;13.528;2023-11-19T15:09:16;13.90;;;3.93;;
2123;SDS011;1068;52.460;13.528;2023-11-19T15:11:44;20.40;;;4.20;;